createdAt,value
2019-05-17T00:01:16.511Z,14.51
2019-05-17T00:03:47.109Z,14.56
2019-05-17T00:06:17.996Z,14.57
2019-05-17T00:08:48.650Z,14.60
2019-05-17T00:11:18.985Z,14.60
2019-05-17T00:13:49.392Z,14.60
2019-05-17T00:16:19.793Z,14.58
2019-05-17T00:18:50.401Z,14.56
2019-05-17T00:21:21.084Z,14.54
2019-05-17T00:23:51.731Z,14.57
2019-05-17T00:26:22.445Z,14.58
2019-05-17T00:28:52.886Z,14.59
2019-05-17T00:31:23.176Z,14.60
2019-05-17T00:33:53.864Z,14.62
2019-05-17T00:36:26.773Z,14.66
2019-05-17T00:38:56.961Z,14.65
2019-05-17T00:41:27.651Z,14.65
2019-05-17T00:43:58.332Z,14.62
2019-05-17T00:46:28.645Z,14.63
2019-05-17T00:48:58.868Z,14.66
2019-05-17T00:51:30.334Z,14.68
2019-05-17T00:54:00.908Z,14.68
2019-05-17T00:56:31.580Z,14.68
2019-05-17T00:59:03.752Z,14.66
2019-05-17T01:01:36.380Z,14.65
2019-05-17T01:04:06.883Z,14.67
2019-05-17T01:06:37.727Z,14.68
2019-05-17T01:09:09.125Z,14.71
2019-05-17T01:11:39.766Z,14.68
2019-05-17T01:14:10.076Z,14.67
2019-05-17T01:16:40.682Z,14.67
2019-05-17T01:19:10.987Z,14.66
2019-05-17T01:21:41.237Z,14.64
2019-05-17T01:24:11.470Z,14.64
2019-05-17T01:26:41.761Z,14.65
2019-05-17T01:29:12.094Z,14.62
2019-05-17T01:31:42.263Z,14.61
2019-05-17T01:34:12.501Z,14.66
2019-05-17T01:36:42.713Z,14.70
2019-05-17T01:39:17.687Z,14.71
2019-05-17T01:41:46.801Z,14.69
2019-05-17T01:44:17.641Z,14.66
2019-05-17T01:46:49.401Z,14.66
2019-05-17T01:49:19.986Z,14.60
2019-05-17T01:51:50.308Z,14.57
2019-05-17T01:54:22.059Z,14.55
2019-05-17T01:56:52.667Z,14.54
2019-05-17T01:59:22.960Z,14.54
2019-05-17T02:01:56.555Z,14.51
2019-05-17T02:04:26.995Z,14.53
2019-05-17T02:06:57.625Z,14.58
2019-05-17T02:09:37.268Z,14.61
2019-05-17T02:12:00.390Z,14.63
2019-05-17T02:14:30.694Z,14.64
2019-05-17T02:17:00.916Z,14.61
2019-05-17T02:19:31.205Z,14.61
2019-05-17T02:22:01.422Z,14.61
2019-05-17T02:24:31.673Z,14.61
2019-05-17T02:27:01.919Z,14.64
2019-05-17T02:29:32.275Z,14.64
2019-05-17T02:32:03.813Z,14.64
2019-05-17T02:34:34.451Z,14.67
2019-05-17T02:37:04.666Z,14.64
2019-05-17T02:39:51.954Z,14.64
2019-05-17T02:42:06.893Z,14.60
2019-05-17T02:44:37.138Z,14.61
2019-05-17T02:47:07.390Z,14.63
2019-05-17T02:49:38.004Z,14.69
2019-05-17T02:52:08.660Z,14.63
2019-05-17T02:54:39.311Z,14.60
2019-05-17T02:57:09.623Z,14.59
2019-05-17T02:59:39.848Z,14.62
2019-05-17T03:02:12.636Z,14.61
2019-05-17T03:04:43.419Z,14.58
2019-05-17T03:07:14.729Z,14.54
2019-05-17T03:09:45.037Z,14.56
2019-05-17T03:12:15.250Z,14.54
2019-05-17T03:14:45.501Z,14.54
2019-05-17T03:17:15.729Z,14.54
2019-05-17T03:19:45.990Z,14.54
2019-05-17T03:22:16.581Z,14.56
2019-05-17T03:24:46.870Z,14.59
2019-05-17T03:27:17.086Z,14.63
2019-05-17T03:29:47.359Z,14.68
2019-05-17T03:32:19.603Z,14.74
2019-05-17T03:34:55.898Z,14.79
2019-05-17T03:37:29.934Z,14.86
2019-05-17T03:39:55.253Z,14.94
2019-05-17T03:42:25.655Z,15.00
2019-05-17T03:44:56.265Z,15.08
2019-05-17T03:47:26.552Z,15.08
2019-05-17T03:49:56.845Z,15.05
2019-05-17T03:52:27.155Z,15.09
2019-05-17T03:54:57.401Z,15.10
2019-05-17T03:57:27.619Z,15.14
2019-05-17T03:59:57.872Z,15.14
2019-05-17T04:02:28.327Z,15.17
2019-05-17T04:04:58.558Z,15.20
2019-05-17T04:07:32.842Z,15.22
2019-05-17T04:10:04.458Z,15.30
2019-05-17T04:12:35.177Z,15.34
2019-05-17T04:15:08.412Z,15.34
2019-05-17T04:17:39.049Z,15.38
2019-05-17T04:20:09.429Z,15.42
2019-05-17T04:22:43.683Z,15.48
2019-05-17T04:25:13.617Z,15.48
2019-05-17T04:27:45.821Z,15.59
2019-05-17T04:30:18.351Z,15.64
2019-05-17T04:32:52.409Z,15.70
2019-05-17T04:35:23.237Z,15.74
2019-05-17T04:37:53.426Z,15.85
2019-05-17T04:40:23.716Z,15.98
2019-05-17T04:42:53.956Z,16.10
2019-05-17T04:45:24.588Z,16.25
2019-05-17T04:47:55.258Z,16.45
2019-05-17T04:50:25.937Z,16.74
2019-05-17T04:52:56.577Z,17.06
2019-05-17T04:55:27.291Z,17.30
2019-05-17T04:57:57.998Z,17.52
2019-05-17T05:00:28.698Z,17.80
2019-05-17T05:02:59.337Z,18.06
2019-05-17T05:05:32.785Z,18.25
2019-05-17T05:08:03.695Z,18.45
2019-05-17T05:10:37.803Z,18.69
2019-05-17T05:13:05.772Z,18.93
2019-05-17T05:15:44.588Z,19.01
2019-05-17T05:18:15.180Z,19.10
2019-05-17T05:20:48.432Z,19.15
2019-05-17T05:23:23.830Z,19.16
2019-05-17T05:25:54.233Z,19.20
2019-05-17T05:28:52.669Z,19.30
2019-05-17T05:31:23.836Z,19.51
2019-05-17T05:33:57.302Z,19.80
2019-05-17T05:36:27.943Z,19.92
2019-05-17T05:39:02.209Z,19.89
2019-05-17T05:41:33.647Z,19.94
2019-05-17T05:44:04.363Z,20.11
2019-05-17T05:46:35.360Z,20.24
2019-05-17T05:49:05.680Z,20.35
2019-05-17T05:51:35.899Z,20.25
2019-05-17T05:54:07.285Z,20.21
2019-05-17T05:56:37.627Z,20.10
2019-05-17T05:59:08.192Z,19.95
2019-05-17T06:01:38.932Z,19.99
2019-05-17T06:04:11.618Z,20.36
2019-05-17T06:06:41.825Z,20.83
2019-05-17T06:09:12.436Z,21.32
2019-05-17T06:11:43.065Z,21.78
2019-05-17T06:14:13.500Z,22.12
2019-05-17T06:16:44.014Z,22.39
2019-05-17T06:19:14.672Z,22.30
2019-05-17T06:21:44.961Z,22.10
2019-05-17T06:24:15.558Z,21.72
2019-05-17T06:26:46.235Z,21.73
2019-05-17T06:29:16.909Z,21.70
2019-05-17T06:31:47.206Z,21.71
2019-05-17T06:34:19.090Z,21.65
2019-05-17T06:36:49.775Z,21.76
2019-05-17T06:39:22.425Z,22.11
2019-05-17T06:41:52.796Z,22.26
2019-05-17T06:44:23.105Z,22.38
2019-05-17T06:46:53.344Z,22.26
2019-05-17T06:49:23.616Z,21.93
2019-05-17T06:51:54.180Z,21.64
2019-05-17T06:54:24.834Z,21.50
2019-05-17T06:56:55.505Z,22.08
2019-05-17T06:59:25.803Z,22.22
2019-05-17T07:01:59.702Z,22.15
2019-05-17T07:04:29.950Z,22.12
2019-05-17T07:07:20.686Z,22.19
2019-05-17T07:09:51.843Z,22.36
2019-05-17T07:12:22.087Z,22.51
2019-05-17T07:14:58.362Z,22.58
2019-05-17T07:17:30.388Z,22.57
2019-05-17T07:20:01.099Z,22.54
2019-05-17T07:22:32.758Z,22.55
2019-05-17T07:25:03.433Z,22.60
2019-05-17T07:27:45.419Z,22.91
2019-05-17T07:30:14.418Z,23.55
2019-05-17T07:32:45.672Z,24.53
2019-05-17T07:35:15.971Z,26.75
2019-05-17T07:37:46.587Z,30.44
2019-05-17T07:40:19.688Z,31.57
2019-05-17T07:42:50.112Z,31.32
2019-05-17T07:45:20.915Z,32.03
2019-05-17T07:47:51.209Z,32.06
2019-05-17T07:50:22.007Z,32.26
2019-05-17T07:52:53.658Z,33.38
2019-05-17T07:55:23.955Z,33.35
2019-05-17T07:57:56.243Z,32.85
2019-05-17T08:00:26.513Z,33.10
2019-05-17T08:02:59.775Z,33.25
2019-05-17T08:05:29.648Z,33.25
2019-05-17T08:08:00.451Z,33.18
2019-05-17T08:10:30.763Z,32.97
2019-05-17T08:13:01.055Z,33.43
2019-05-17T08:15:31.341Z,33.12
2019-05-17T08:18:01.981Z,32.85
2019-05-17T08:20:32.443Z,31.84
2019-05-17T08:23:05.141Z,30.82
2019-05-17T08:25:49.696Z,29.89
2019-05-17T08:28:10.672Z,28.80
2019-05-17T08:30:40.901Z,28.31
2019-05-17T08:33:12.855Z,28.66
2019-05-17T08:35:59.756Z,28.80
2019-05-17T08:38:30.685Z,28.45
2019-05-17T08:41:03.172Z,28.04
2019-05-17T08:43:42.715Z,27.80
2019-05-17T08:46:06.045Z,27.93
2019-05-17T08:48:36.755Z,28.29
2019-05-17T08:51:07.483Z,28.63
2019-05-17T08:53:39.934Z,29.30
2019-05-17T08:56:10.593Z,29.59
2019-05-17T08:58:41.227Z,29.78
2019-05-17T09:01:12.094Z,30.23
2019-05-17T09:03:42.786Z,30.39
2019-05-17T09:06:13.100Z,31.39
2019-05-17T09:08:43.401Z,33.15
2019-05-17T09:11:14.132Z,33.53
2019-05-17T09:13:55.572Z,33.98
2019-05-17T09:16:19.652Z,34.38
2019-05-17T09:18:50.322Z,33.69
2019-05-17T09:21:21.961Z,32.26
2019-05-17T09:23:52.479Z,30.65
2019-05-17T09:26:23.078Z,29.24
2019-05-17T09:28:53.431Z,28.28
2019-05-17T09:31:23.698Z,27.66
2019-05-17T09:33:53.948Z,27.50
2019-05-17T09:36:24.529Z,27.26
2019-05-17T09:38:54.813Z,27.25
2019-05-17T09:41:25.041Z,27.10
2019-05-17T09:44:08.654Z,26.95
2019-05-17T09:46:30.063Z,27.07
2019-05-17T09:49:01.101Z,27.25
2019-05-17T09:51:32.049Z,27.31
2019-05-17T09:54:02.389Z,27.23
2019-05-17T09:56:33.722Z,27.39
2019-05-17T09:59:04.395Z,27.60
2019-05-17T10:01:34.808Z,28.01
2019-05-17T10:04:05.556Z,28.13
2019-05-17T10:06:36.210Z,29.13
2019-05-17T10:09:09.518Z,29.24
2019-05-17T10:11:41.141Z,29.43
2019-05-17T10:14:24.581Z,29.67
2019-05-17T10:16:43.717Z,29.35
2019-05-17T10:19:14.429Z,28.64
2019-05-17T10:21:44.779Z,28.27
2019-05-17T10:24:15.384Z,27.78
2019-05-17T10:26:45.733Z,27.41
2019-05-17T10:29:16.332Z,26.88
2019-05-17T10:31:46.968Z,26.51
2019-05-17T10:34:20.210Z,26.23
2019-05-17T10:36:50.647Z,26.06
2019-05-17T10:39:21.725Z,25.95
2019-05-17T10:41:52.408Z,26.28
2019-05-17T10:44:23.054Z,26.78
2019-05-17T10:46:55.149Z,27.13
2019-05-17T10:49:25.816Z,27.24
2019-05-17T10:51:56.138Z,27.17
2019-05-17T10:54:26.724Z,27.19
2019-05-17T10:56:59.702Z,27.25
2019-05-17T10:59:29.713Z,27.26
2019-05-17T11:02:00.421Z,27.26
2019-05-17T11:04:31.165Z,27.07
2019-05-17T11:07:01.480Z,26.72
2019-05-17T11:09:31.757Z,26.65
2019-05-17T11:12:02.287Z,26.44
2019-05-17T11:14:32.972Z,26.23
2019-05-17T11:17:03.882Z,25.89
2019-05-17T11:19:34.311Z,25.76
2019-05-17T11:22:06.036Z,25.85
2019-05-17T11:24:38.541Z,25.93
2019-05-17T11:27:10.119Z,25.87
2019-05-17T11:29:40.841Z,25.84
2019-05-17T11:32:11.267Z,25.97
2019-05-17T11:34:42.037Z,25.93
2019-05-17T11:37:12.723Z,26.00
2019-05-17T11:39:43.467Z,26.34
2019-05-17T11:42:14.782Z,26.27
2019-05-17T11:44:47.576Z,26.04
2019-05-17T11:47:18.245Z,25.99
2019-05-17T11:49:49.244Z,25.95
2019-05-17T11:52:20.032Z,25.91
2019-05-17T11:54:52.220Z,25.83
2019-05-17T11:57:23.005Z,25.62
2019-05-17T11:59:53.325Z,25.60
2019-05-17T12:02:24.784Z,25.39
2019-05-17T12:04:55.414Z,25.20
2019-05-17T12:07:25.771Z,24.87
2019-05-17T12:09:57.712Z,24.77
2019-05-17T12:12:29.919Z,24.69
2019-05-17T12:15:02.204Z,24.49
2019-05-17T12:17:32.623Z,24.18
2019-05-17T12:20:05.026Z,23.97
2019-05-17T12:22:35.323Z,23.89
2019-05-17T12:25:08.691Z,24.02
2019-05-17T12:27:40.720Z,24.04
2019-05-17T12:30:15.022Z,24.04
2019-05-17T12:32:45.047Z,24.07
2019-05-17T12:35:17.229Z,24.09
2019-05-17T12:37:58.967Z,23.98
2019-05-17T12:40:29.261Z,23.77
2019-05-17T12:46:19.749Z,23.49
2019-05-17T12:48:50.052Z,23.60
2019-05-17T12:51:21.707Z,23.67
2019-05-17T12:53:55.185Z,24.04
2019-05-17T12:56:25.467Z,24.24
2019-05-17T12:58:55.842Z,24.18
2019-05-17T13:01:26.441Z,23.97
2019-05-17T13:03:56.727Z,23.86
2019-05-17T13:06:27.310Z,23.76
2019-05-17T13:11:47.899Z,23.87
2019-05-17T13:12:29.177Z,23.77
2019-05-17T13:14:18.547Z,23.99
2019-05-17T13:16:50.708Z,23.88
2019-05-17T13:19:25.222Z,23.81
2019-05-17T13:21:54.759Z,23.72
2019-05-17T13:24:25.504Z,23.57
2019-05-17T13:26:57.784Z,23.42
2019-05-17T13:29:28.475Z,23.23
2019-05-17T13:31:59.127Z,23.09
2019-05-17T13:34:29.818Z,23.03
2019-05-17T13:37:00.310Z,22.91
2019-05-17T13:39:30.532Z,22.74
2019-05-17T13:42:00.998Z,22.45
2019-05-17T13:44:32.808Z,22.01
2019-05-17T13:47:04.588Z,21.62
2019-05-17T13:49:35.205Z,21.27
2019-05-17T13:52:05.600Z,21.06
2019-05-17T13:54:37.123Z,20.80
2019-05-17T13:57:11.169Z,20.59
2019-05-17T13:59:40.080Z,20.38
2019-05-17T14:02:10.295Z,20.28
2019-05-17T14:04:40.558Z,20.13
2019-05-17T14:07:10.774Z,20.09
2019-05-17T14:12:56.739Z,20.15
2019-05-17T14:15:27.126Z,20.10
2019-05-17T14:17:57.418Z,20.03
2019-05-17T14:20:27.995Z,19.89
2019-05-17T14:22:58.302Z,19.80
2019-05-17T14:25:28.888Z,19.70
2019-05-17T14:28:01.807Z,19.60
2019-05-17T14:30:32.081Z,19.46
2019-05-17T14:33:02.389Z,19.36
2019-05-17T14:35:32.997Z,19.23
2019-05-17T14:38:03.332Z,19.22
2019-05-17T14:41:04.140Z,19.27
2019-05-17T14:43:06.036Z,19.33
2019-05-17T14:45:36.601Z,19.51
2019-05-17T14:48:06.905Z,19.84
2019-05-17T14:50:37.577Z,20.17
2019-05-17T14:53:08.294Z,20.41
2019-05-17T14:55:38.569Z,20.54
2019-05-17T14:58:09.428Z,20.68
2019-05-17T15:00:39.778Z,20.74
2019-05-17T15:03:13.758Z,20.99
2019-05-17T15:05:44.458Z,21.24
2019-05-17T15:08:14.886Z,21.39
2019-05-17T15:10:46.655Z,21.55
2019-05-17T15:13:17.311Z,21.69
2019-05-17T15:15:48.181Z,21.67
2019-05-17T15:18:18.630Z,21.56
2019-05-17T15:20:48.920Z,21.38
2019-05-17T15:23:19.175Z,21.28
2019-05-17T15:25:49.450Z,21.12
2019-05-17T15:28:20.028Z,21.04
2019-05-17T15:30:50.734Z,20.92
2019-05-17T15:33:21.021Z,20.66
2019-05-17T15:35:51.276Z,20.48
2019-05-17T15:38:21.873Z,20.26
2019-05-17T15:40:53.397Z,20.10
2019-05-17T15:43:24.500Z,20.08
2019-05-17T15:45:54.745Z,20.11
2019-05-17T15:48:25.158Z,20.11
2019-05-17T15:51:00.530Z,20.18
2019-05-17T15:53:31.178Z,20.28
2019-05-17T15:56:01.493Z,20.45
2019-05-17T15:58:32.139Z,20.61
2019-05-17T16:01:02.439Z,20.78
2019-05-17T16:03:33.025Z,20.90
2019-05-17T16:06:04.346Z,21.11
2019-05-17T16:08:34.637Z,21.20
2019-05-17T16:11:04.970Z,21.20
2019-05-17T16:13:35.200Z,21.22
2019-05-17T16:16:05.554Z,21.19
2019-05-17T16:18:37.215Z,21.11
2019-05-17T16:21:07.897Z,21.01
2019-05-17T16:23:38.514Z,20.95
2019-05-17T16:26:08.849Z,20.88
2019-05-17T16:28:39.106Z,20.78
2019-05-17T16:31:10.341Z,20.71
2019-05-17T16:33:40.927Z,20.64
2019-05-17T16:36:12.404Z,20.65
2019-05-17T16:38:44.331Z,20.55
2019-05-17T16:41:14.998Z,20.50
2019-05-17T16:43:45.356Z,20.49
2019-05-17T16:46:15.812Z,20.42
2019-05-17T16:48:46.428Z,20.34
2019-05-17T16:51:17.089Z,20.30
2019-05-17T16:53:47.414Z,20.23
2019-05-17T16:56:18.047Z,20.21
2019-05-17T16:58:49.981Z,20.19
2019-05-17T17:01:20.694Z,20.14
2019-05-17T17:03:51.024Z,20.09
2019-05-17T17:06:21.702Z,20.01
2019-05-17T17:08:53.131Z,19.92
2019-05-17T17:11:23.453Z,19.84
2019-05-17T17:13:53.820Z,19.82
2019-05-17T17:16:24.043Z,19.76
2019-05-17T17:18:54.297Z,19.69
2019-05-17T17:21:24.537Z,19.64
2019-05-17T17:23:54.775Z,19.57
2019-05-17T17:26:25.002Z,19.53
2019-05-17T17:28:55.744Z,19.49
2019-05-17T17:31:26.156Z,19.46
2019-05-17T17:33:56.977Z,19.42
2019-05-17T17:36:27.706Z,19.38
2019-05-17T17:38:58.408Z,19.34
2019-05-17T17:41:29.120Z,19.31
2019-05-17T17:43:59.549Z,19.29
2019-05-17T17:46:32.887Z,19.27
2019-05-17T17:49:03.576Z,19.22
2019-05-17T17:51:33.890Z,19.17
2019-05-17T17:54:04.207Z,19.10
2019-05-17T17:56:34.796Z,19.08
2019-05-17T17:59:05.549Z,19.04
2019-05-17T18:01:36.741Z,18.96
2019-05-17T18:04:07.622Z,18.83
2019-05-17T18:06:37.879Z,18.68
2019-05-17T18:09:08.907Z,18.53
2019-05-17T18:11:39.186Z,18.40
2019-05-17T18:14:13.429Z,18.30
2019-05-17T18:16:42.242Z,18.28
2019-05-17T18:19:12.556Z,18.19
2019-05-17T18:21:43.228Z,18.09
2019-05-17T18:24:17.606Z,17.96
2019-05-17T18:26:47.496Z,17.83
2019-05-17T18:29:17.928Z,17.71
2019-05-17T18:31:48.197Z,17.55
2019-05-17T18:34:18.776Z,17.39
2019-05-17T18:36:49.111Z,17.31
2019-05-17T18:39:20.015Z,17.22
2019-05-17T18:41:50.747Z,17.13
2019-05-17T18:44:27.773Z,17.07
2019-05-17T18:46:54.664Z,16.93
2019-05-17T18:49:25.223Z,16.80
2019-05-17T18:51:55.532Z,16.69
2019-05-17T18:54:26.202Z,16.57
2019-05-17T18:56:56.533Z,16.45
2019-05-17T18:59:26.778Z,16.34
2019-05-17T19:01:57.363Z,16.21
2019-05-17T19:04:29.631Z,16.11
2019-05-17T19:06:59.969Z,16.01
2019-05-17T19:09:30.587Z,15.91
2019-05-17T19:12:00.911Z,15.83
2019-05-17T19:14:42.428Z,15.75
2019-05-17T19:17:03.032Z,15.72
2019-05-17T19:19:33.608Z,15.67
2019-05-17T19:22:04.324Z,15.58
2019-05-17T19:24:34.622Z,15.51
2019-05-17T19:27:05.223Z,15.43
2019-05-17T19:29:35.972Z,15.39
2019-05-17T19:32:06.349Z,15.34
2019-05-17T19:34:36.592Z,15.27
2019-05-17T19:37:06.894Z,15.20
2019-05-17T19:39:37.137Z,15.15
2019-05-17T19:42:07.260Z,15.13
2019-05-17T19:44:37.853Z,15.07
2019-05-17T19:47:08.494Z,15.04
2019-05-17T19:49:38.811Z,15.02
2019-05-17T19:52:09.172Z,14.97
2019-05-17T19:54:39.766Z,14.93
2019-05-17T19:57:10.432Z,14.93
2019-05-17T19:59:41.116Z,14.86
2019-05-17T20:02:11.785Z,14.79
2019-05-17T20:04:42.535Z,14.73
2019-05-17T20:07:13.114Z,14.68
2019-05-17T20:09:43.851Z,14.62
2019-05-17T20:12:14.528Z,14.57
2019-05-17T20:14:45.479Z,14.51
2019-05-17T20:17:16.183Z,14.49
2019-05-17T20:19:46.886Z,14.47
2019-05-17T20:22:18.847Z,14.48
2019-05-17T20:24:51.690Z,14.50
2019-05-17T20:27:21.998Z,14.56
2019-05-17T20:29:52.620Z,14.50
2019-05-17T20:32:23.345Z,14.45
2019-05-17T20:34:53.662Z,14.41
2019-05-17T20:37:23.932Z,14.34
2019-05-17T20:39:54.173Z,14.26
2019-05-17T20:42:24.780Z,14.21
2019-05-17T20:44:57.924Z,14.16
2019-05-17T20:47:28.251Z,14.18
2019-05-17T20:49:58.531Z,14.16
2019-05-17T20:52:29.098Z,14.22
2019-05-17T20:54:59.532Z,14.37
2019-05-17T20:57:30.101Z,14.44
2019-05-17T21:00:00.409Z,14.44
2019-05-17T21:02:32.618Z,14.47
2019-05-17T21:05:03.223Z,14.48
2019-05-17T21:07:33.456Z,14.50
2019-05-17T21:10:05.390Z,14.56
2019-05-17T21:12:35.698Z,14.58
2019-05-17T21:15:10.604Z,14.58
2019-05-17T21:17:40.069Z,14.63
2019-05-17T21:20:13.199Z,14.61
2019-05-17T21:22:43.936Z,14.59
2019-05-17T21:25:14.391Z,14.68
2019-05-17T21:27:45.683Z,14.76
2019-05-17T21:30:17.019Z,14.73
2019-05-17T21:32:47.241Z,14.76
2019-05-17T21:35:17.900Z,14.70
2019-05-17T21:37:48.202Z,14.70
2019-05-17T21:40:19.451Z,14.64
2019-05-17T21:42:51.616Z,14.65
2019-05-17T21:45:22.000Z,14.63
2019-05-17T21:47:52.217Z,14.65
2019-05-17T21:50:23.728Z,14.68
2019-05-17T21:52:56.876Z,14.67
2019-05-17T21:55:28.943Z,14.64
2019-05-17T21:58:02.250Z,14.66
2019-05-17T22:00:54.270Z,14.63
2019-05-17T22:03:25.178Z,14.64
2019-05-17T22:05:55.951Z,14.63
2019-05-17T22:08:26.645Z,14.59
2019-05-17T22:10:57.311Z,14.56
2019-05-17T22:13:27.627Z,14.50
2019-05-17T22:15:57.874Z,14.42
2019-05-17T22:18:28.612Z,14.32
2019-05-17T22:20:58.915Z,14.25
2019-05-17T22:23:29.209Z,14.13
2019-05-17T22:25:59.451Z,14.04
2019-05-17T22:28:29.683Z,13.93
2019-05-17T22:31:00.352Z,13.83
2019-05-17T22:33:31.089Z,13.75
2019-05-17T22:36:01.762Z,13.66
2019-05-17T22:38:32.094Z,13.57
2019-05-17T22:41:02.700Z,13.49
2019-05-17T22:43:33.039Z,13.43
2019-05-17T22:46:03.285Z,13.41
2019-05-17T22:48:33.501Z,13.40
2019-05-17T22:51:04.150Z,13.36
2019-05-17T22:53:34.832Z,13.34
2019-05-17T22:56:05.841Z,13.43
2019-05-17T22:58:36.549Z,13.34
2019-05-17T23:01:07.169Z,13.25
2019-05-17T23:03:37.476Z,13.28
2019-05-17T23:06:08.203Z,13.35
2019-05-17T23:08:38.866Z,13.21
2019-05-17T23:11:09.181Z,13.21
2019-05-17T23:13:39.398Z,13.18
2019-05-17T23:16:11.611Z,13.23
2019-05-17T23:18:43.903Z,13.17
2019-05-17T23:21:14.718Z,13.20
2019-05-17T23:23:45.361Z,13.23
2019-05-17T23:26:15.709Z,13.19
2019-05-17T23:28:46.351Z,13.10
2019-05-17T23:31:16.677Z,12.98
2019-05-17T23:33:47.259Z,12.89
2019-05-17T23:36:17.572Z,12.80
2019-05-17T23:38:48.164Z,12.75
2019-05-17T23:41:18.822Z,12.71
2019-05-17T23:43:49.120Z,12.69
2019-05-17T23:46:19.763Z,12.68
2019-05-17T23:48:50.398Z,12.72
2019-05-17T23:51:20.727Z,12.72
2019-05-17T23:53:51.474Z,12.69
2019-05-17T23:56:22.138Z,12.64
2019-05-17T23:58:52.439Z,12.58
